AUA52TV LOWW-LIML
Flight info
| Callsign | AUA52TV |
|---|---|
| Flight time | 1h 8m |
| Altitude | 34000 |
| Route | OSPEN DCT ABRUK DCT SETAL DCT DETSA DCT BAKOR DCT NAXAV DCT RENTA DCT ATPED DCT LUSIL |
| Aircraft | A321/M-SDE2E3FGHIJ1RWXY/LB1 |
Departure
| Time | 2026-05-06 18:04 |
|---|---|
| Airport | Vienna International Airport (LOWW) |
Arrival
| Time | 2026-05-06 19:12 |
|---|---|
| Airport | Milano Linate Airport (LIML) |
| Time | Latitude | Longitude | Altitude | Speed | Heading |
|---|---|---|---|---|---|
| 2026-05-06 17:25 | 48.11919 | 16.56716 | 623 ft | 0 kts | 206° |
| 2026-05-06 17:54 | 48.11939 | 16.56731 | 619 ft | 4 kts | 200° |
| 2026-05-06 17:54 | 48.11965 | 16.56741 | 618 ft | 4 kts | 181° |
| 2026-05-06 17:54 | 48.11987 | 16.56734 | 624 ft | 4 kts | 124° |
| 2026-05-06 17:54 | 48.11990 | 16.56727 | 624 ft | 0 kts | 116° |
| 2026-05-06 17:55 | 48.11990 | 16.56728 | 624 ft | 0 kts | 116° |
| 2026-05-06 17:58 | 48.11978 | 16.56765 | 622 ft | 9 kts | 115° |
| 2026-05-06 17:58 | 48.11973 | 16.56788 | 617 ft | 5 kts | 100° |
| 2026-05-06 17:59 | 48.11974 | 16.56823 | 619 ft | 4 kts | 87° |
| 2026-05-06 17:59 | 48.11974 | 16.56890 | 611 ft | 10 kts | 92° |
| 2026-05-06 17:59 | 48.11957 | 16.56968 | 613 ft | 6 kts | 116° |
| 2026-05-06 17:59 | 48.11938 | 16.57027 | 617 ft | 6 kts | 116° |
| 2026-05-06 18:00 | 48.11921 | 16.57077 | 608 ft | 2 kts | 116° |
| 2026-05-06 18:00 | 48.11902 | 16.57135 | 613 ft | 7 kts | 118° |
| 2026-05-06 18:00 | 48.11872 | 16.57193 | 614 ft | 9 kts | 135° |
| 2026-05-06 18:00 | 48.11838 | 16.57272 | 619 ft | 7 kts | 100° |
| 2026-05-06 18:01 | 48.11887 | 16.57312 | 620 ft | 12 kts | 349° |
| 2026-05-06 18:01 | 48.11964 | 16.57288 | 614 ft | 11 kts | 3° |
| 2026-05-06 18:01 | 48.11997 | 16.57369 | 621 ft | 9 kts | 72° |
| 2026-05-06 18:01 | 48.12011 | 16.57460 | 612 ft | 9 kts | 86° |
| 2026-05-06 18:02 | 48.12003 | 16.57544 | 622 ft | 8 kts | 103° |
| 2026-05-06 18:02 | 48.11996 | 16.57590 | 610 ft | 4 kts | 104° |
| 2026-05-06 18:02 | 48.11983 | 16.57667 | 612 ft | 12 kts | 104° |
| 2026-05-06 18:02 | 48.11959 | 16.57794 | 620 ft | 9 kts | 109° |
| 2026-05-06 18:03 | 48.11922 | 16.57841 | 614 ft | 7 kts | 162° |
| 2026-05-06 18:03 | 48.11913 | 16.57845 | 618 ft | 0 kts | 163° |
| 2026-05-06 18:03 | 48.11904 | 16.57849 | 615 ft | 7 kts | 163° |
| 2026-05-06 18:03 | 48.11673 | 16.57948 | 615 ft | 69 kts | 164° |
| 2026-05-06 18:04 | 48.11015 | 16.58227 | 616 ft | 125 kts | 164° |
| 2026-05-06 18:04 | 48.10050 | 16.58628 | 817 ft | 151 kts | 163° |
| 2026-05-06 18:04 | 48.09042 | 16.59047 | 1474 ft | 150 kts | 167° |
| 2026-05-06 18:04 | 48.08047 | 16.59467 | 2194 ft | 146 kts | 169° |
| 2026-05-06 18:05 | 48.07091 | 16.59882 | 2896 ft | 141 kts | 171° |
| 2026-05-06 18:05 | 48.06154 | 16.60231 | 3447 ft | 140 kts | 184° |
| 2026-05-06 18:05 | 48.05231 | 16.59643 | 3666 ft | 158 kts | 219° |
| 2026-05-06 18:05 | 48.04455 | 16.58312 | 3874 ft | 181 kts | 226° |
| 2026-05-06 18:06 | 48.03568 | 16.56823 | 4042 ft | 204 kts | 225° |
| 2026-05-06 18:06 | 48.02549 | 16.55162 | 4308 ft | 228 kts | 225° |
| 2026-05-06 18:06 | 48.01446 | 16.53384 | 4999 ft | 237 kts | 226° |
| 2026-05-06 18:06 | 48.00310 | 16.51557 | 5797 ft | 242 kts | 226° |
| 2026-05-06 18:07 | 47.99152 | 16.49699 | 6577 ft | 247 kts | 226° |
| 2026-05-06 18:07 | 47.97970 | 16.47815 | 7346 ft | 250 kts | 226° |
| 2026-05-06 18:07 | 47.96773 | 16.45893 | 8104 ft | 255 kts | 229° |
| 2026-05-06 18:07 | 47.95846 | 16.43608 | 8862 ft | 262 kts | 246° |
| 2026-05-06 18:08 | 47.95323 | 16.40964 | 9624 ft | 268 kts | 250° |
| 2026-05-06 18:08 | 47.94720 | 16.38323 | 10314 ft | 272 kts | 247° |
| 2026-05-06 18:08 | 47.94011 | 16.35581 | 10541 ft | 295 kts | 246° |
| 2026-05-06 18:08 | 47.93216 | 16.32634 | 10685 ft | 317 kts | 246° |
| 2026-05-06 18:09 | 47.92375 | 16.29510 | 11082 ft | 330 kts | 246° |
| 2026-05-06 18:09 | 47.91525 | 16.26296 | 11653 ft | 337 kts | 247° |
| 2026-05-06 18:09 | 47.90677 | 16.23032 | 12386 ft | 338 kts | 247° |
| 2026-05-06 18:09 | 47.89831 | 16.19758 | 13101 ft | 341 kts | 247° |
| 2026-05-06 18:10 | 47.88976 | 16.16439 | 13715 ft | 345 kts | 248° |
| 2026-05-06 18:10 | 47.88111 | 16.13074 | 14240 ft | 350 kts | 247° |
| 2026-05-06 18:10 | 47.87239 | 16.09680 | 14866 ft | 352 kts | 247° |
| 2026-05-06 18:10 | 47.86360 | 16.06270 | 15466 ft | 354 kts | 247° |
| 2026-05-06 18:11 | 47.85473 | 16.02841 | 16007 ft | 357 kts | 247° |
| 2026-05-06 18:11 | 47.84880 | 16.00558 | 16383 ft | 359 kts | 247° |
| 2026-05-06 18:11 | 47.83668 | 15.95888 | 17107 ft | 363 kts | 247° |
| 2026-05-06 18:11 | 47.82755 | 15.92375 | 17646 ft | 365 kts | 247° |
| 2026-05-06 18:12 | 47.81836 | 15.88847 | 18187 ft | 367 kts | 247° |
| 2026-05-06 18:12 | 47.80907 | 15.85290 | 18621 ft | 370 kts | 247° |
| 2026-05-06 18:12 | 47.80289 | 15.82931 | 18925 ft | 371 kts | 247° |
| 2026-05-06 18:12 | 47.79349 | 15.79349 | 19322 ft | 373 kts | 247° |
| 2026-05-06 18:13 | 47.78091 | 15.74530 | 20020 ft | 371 kts | 246° |
| 2026-05-06 18:13 | 47.77471 | 15.72159 | 20369 ft | 371 kts | 246° |
| 2026-05-06 18:13 | 47.76533 | 15.68576 | 20800 ft | 374 kts | 246° |
| 2026-05-06 18:13 | 47.75585 | 15.64961 | 21240 ft | 376 kts | 246° |
| 2026-05-06 18:14 | 47.74630 | 15.61331 | 21668 ft | 378 kts | 246° |
| 2026-05-06 18:14 | 47.73667 | 15.57688 | 22153 ft | 380 kts | 246° |
| 2026-05-06 18:14 | 47.72696 | 15.54029 | 22608 ft | 383 kts | 246° |
| 2026-05-06 18:14 | 47.71716 | 15.50340 | 23040 ft | 385 kts | 246° |
| 2026-05-06 18:15 | 47.70730 | 15.46631 | 23485 ft | 387 kts | 245° |
| 2026-05-06 18:15 | 47.69738 | 15.42906 | 23880 ft | 389 kts | 245° |
| 2026-05-06 18:15 | 47.68741 | 15.39166 | 24207 ft | 391 kts | 246° |
| 2026-05-06 18:15 | 47.67738 | 15.35402 | 24582 ft | 393 kts | 246° |
| 2026-05-06 18:16 | 47.66730 | 15.31619 | 24989 ft | 394 kts | 246° |
| 2026-05-06 18:16 | 47.65719 | 15.27831 | 25375 ft | 396 kts | 246° |
| 2026-05-06 18:16 | 47.64702 | 15.24033 | 25726 ft | 397 kts | 246° |
| 2026-05-06 18:16 | 47.63677 | 15.20213 | 25991 ft | 400 kts | 246° |
| 2026-05-06 18:17 | 47.62645 | 15.16373 | 26297 ft | 402 kts | 246° |
| 2026-05-06 18:17 | 47.61608 | 15.12516 | 26625 ft | 403 kts | 246° |
| 2026-05-06 18:17 | 47.60565 | 15.08649 | 26974 ft | 405 kts | 246° |
| 2026-05-06 18:17 | 47.59514 | 15.04764 | 27324 ft | 407 kts | 246° |
| 2026-05-06 18:18 | 47.58457 | 15.00861 | 27688 ft | 409 kts | 246° |
| 2026-05-06 18:18 | 47.57394 | 14.96948 | 28041 ft | 410 kts | 246° |
| 2026-05-06 18:18 | 47.56328 | 14.93023 | 28373 ft | 411 kts | 246° |
| 2026-05-06 18:18 | 47.55256 | 14.89086 | 28692 ft | 413 kts | 246° |
| 2026-05-06 18:19 | 47.54181 | 14.85135 | 28985 ft | 414 kts | 246° |
| 2026-05-06 18:19 | 47.53102 | 14.81177 | 29187 ft | 416 kts | 246° |
| 2026-05-06 18:19 | 47.52017 | 14.77205 | 29450 ft | 417 kts | 246° |
| 2026-05-06 18:19 | 47.50929 | 14.73224 | 29773 ft | 416 kts | 245° |
| 2026-05-06 18:20 | 47.49847 | 14.69268 | 30116 ft | 414 kts | 245° |
| 2026-05-06 18:20 | 47.48767 | 14.65336 | 30414 ft | 412 kts | 246° |
| 2026-05-06 18:20 | 47.47686 | 14.61411 | 30725 ft | 412 kts | 246° |
| 2026-05-06 18:20 | 47.46606 | 14.57502 | 31083 ft | 410 kts | 246° |
| 2026-05-06 18:21 | 47.45535 | 14.53625 | 31492 ft | 407 kts | 246° |
| 2026-05-06 18:21 | 47.44465 | 14.49759 | 31832 ft | 406 kts | 245° |
| 2026-05-06 18:21 | 47.43399 | 14.45910 | 32141 ft | 405 kts | 245° |
| 2026-05-06 18:21 | 47.42332 | 14.42072 | 32485 ft | 403 kts | 245° |
| 2026-05-06 18:22 | 47.41271 | 14.38254 | 32848 ft | 402 kts | 245° |
| 2026-05-06 18:22 | 47.40212 | 14.34446 | 33232 ft | 400 kts | 245° |
| 2026-05-06 18:22 | 47.39157 | 14.30662 | 33614 ft | 398 kts | 245° |
| 2026-05-06 18:22 | 47.38105 | 14.26887 | 33802 ft | 396 kts | 245° |
| 2026-05-06 18:23 | 47.36034 | 14.19463 | 33826 ft | 388 kts | 244° |
| 2026-05-06 18:23 | 47.33984 | 14.12170 | 33840 ft | 388 kts | 244° |
| 2026-05-06 18:24 | 47.31912 | 14.04817 | 33849 ft | 389 kts | 244° |
| 2026-05-06 18:24 | 47.29835 | 13.97469 | 33839 ft | 388 kts | 244° |
| 2026-05-06 18:25 | 47.27753 | 13.90135 | 33853 ft | 388 kts | 244° |
| 2026-05-06 18:25 | 47.25672 | 13.82801 | 33850 ft | 388 kts | 244° |
| 2026-05-06 18:26 | 47.23586 | 13.75477 | 33880 ft | 387 kts | 244° |
| 2026-05-06 18:26 | 47.21501 | 13.68172 | 33885 ft | 387 kts | 243° |
| 2026-05-06 18:27 | 47.19416 | 13.60889 | 33851 ft | 386 kts | 244° |
| 2026-05-06 18:27 | 47.17325 | 13.53620 | 33849 ft | 386 kts | 244° |
| 2026-05-06 18:28 | 47.15226 | 13.46346 | 33848 ft | 386 kts | 244° |
| 2026-05-06 18:28 | 47.13120 | 13.39073 | 33855 ft | 387 kts | 244° |
| 2026-05-06 18:29 | 47.11015 | 13.31795 | 33859 ft | 387 kts | 244° |
| 2026-05-06 18:29 | 47.08904 | 13.24528 | 33911 ft | 387 kts | 243° |
| 2026-05-06 18:30 | 47.06790 | 13.17283 | 33906 ft | 386 kts | 243° |
| 2026-05-06 18:30 | 47.04673 | 13.10066 | 33901 ft | 385 kts | 243° |
| 2026-05-06 18:31 | 47.02555 | 13.02853 | 33897 ft | 385 kts | 243° |
| 2026-05-06 18:31 | 47.01501 | 12.99266 | 33741 ft | 383 kts | 243° |
| 2026-05-06 18:31 | 47.00447 | 12.95688 | 33464 ft | 382 kts | 243° |
| 2026-05-06 18:32 | 46.99395 | 12.92119 | 33196 ft | 382 kts | 243° |
| 2026-05-06 18:32 | 46.98341 | 12.88546 | 32964 ft | 382 kts | 243° |
| 2026-05-06 18:32 | 46.96226 | 12.81413 | 32891 ft | 382 kts | 243° |
| 2026-05-06 18:33 | 46.94104 | 12.74272 | 32894 ft | 383 kts | 243° |
| 2026-05-06 18:33 | 46.91978 | 12.67127 | 32896 ft | 383 kts | 243° |
| 2026-05-06 18:34 | 46.89842 | 12.59988 | 32910 ft | 383 kts | 243° |
| 2026-05-06 18:34 | 46.87711 | 12.52866 | 32932 ft | 382 kts | 243° |
| 2026-05-06 18:35 | 46.85579 | 12.45773 | 32942 ft | 381 kts | 243° |
| 2026-05-06 18:35 | 46.83442 | 12.38692 | 32954 ft | 381 kts | 243° |
| 2026-05-06 18:36 | 46.81302 | 12.31605 | 32969 ft | 381 kts | 243° |
| 2026-05-06 18:36 | 46.79112 | 12.24575 | 33011 ft | 379 kts | 241° |
| 2026-05-06 18:37 | 46.76720 | 12.17725 | 32904 ft | 379 kts | 239° |
| 2026-05-06 18:37 | 46.74284 | 12.10919 | 32885 ft | 379 kts | 240° |
| 2026-05-06 18:38 | 46.71880 | 12.04109 | 32884 ft | 378 kts | 240° |
| 2026-05-06 18:38 | 46.69510 | 11.97343 | 32883 ft | 378 kts | 240° |
| 2026-05-06 18:39 | 46.67113 | 11.90484 | 32878 ft | 377 kts | 240° |
| 2026-05-06 18:40 | 46.63537 | 11.80338 | 32873 ft | 378 kts | 239° |
| 2026-05-06 18:40 | 46.61128 | 11.73548 | 32878 ft | 377 kts | 240° |
| 2026-05-06 18:41 | 46.58723 | 11.66766 | 32879 ft | 378 kts | 240° |
| 2026-05-06 18:41 | 46.56317 | 11.59992 | 32876 ft | 377 kts | 240° |
| 2026-05-06 18:42 | 46.53902 | 11.53218 | 32898 ft | 378 kts | 239° |
| 2026-05-06 18:42 | 46.51483 | 11.46456 | 32892 ft | 377 kts | 239° |
| 2026-05-06 18:43 | 46.49071 | 11.39695 | 32894 ft | 378 kts | 239° |
| 2026-05-06 18:43 | 46.46639 | 11.32931 | 32938 ft | 377 kts | 239° |
| 2026-05-06 18:44 | 46.44259 | 11.26157 | 32925 ft | 377 kts | 240° |
| 2026-05-06 18:44 | 46.41944 | 11.19345 | 32948 ft | 377 kts | 240° |
| 2026-05-06 18:45 | 46.39625 | 11.12549 | 32987 ft | 375 kts | 240° |
| 2026-05-06 18:45 | 46.37298 | 11.05783 | 32985 ft | 375 kts | 240° |
| 2026-05-06 18:46 | 46.34966 | 10.99043 | 32977 ft | 374 kts | 240° |
| 2026-05-06 18:46 | 46.32625 | 10.92311 | 32971 ft | 374 kts | 240° |
| 2026-05-06 18:47 | 46.30277 | 10.85588 | 33009 ft | 374 kts | 240° |
| 2026-05-06 18:47 | 46.27942 | 10.78857 | 32976 ft | 374 kts | 240° |
| 2026-05-06 18:48 | 46.25606 | 10.72124 | 32959 ft | 375 kts | 240° |
| 2026-05-06 18:48 | 46.23262 | 10.65387 | 32958 ft | 375 kts | 240° |
| 2026-05-06 18:49 | 46.20910 | 10.58661 | 32948 ft | 376 kts | 240° |
| 2026-05-06 18:49 | 46.18550 | 10.51936 | 32799 ft | 376 kts | 239° |
| 2026-05-06 18:49 | 46.17371 | 10.48586 | 32232 ft | 372 kts | 239° |
| 2026-05-06 18:50 | 46.16209 | 10.45281 | 31740 ft | 366 kts | 239° |
| 2026-05-06 18:50 | 46.15069 | 10.42039 | 31232 ft | 360 kts | 239° |
| 2026-05-06 18:50 | 46.13935 | 10.38821 | 30674 ft | 359 kts | 239° |
| 2026-05-06 18:50 | 46.12804 | 10.35615 | 30021 ft | 358 kts | 239° |
| 2026-05-06 18:51 | 46.11679 | 10.32430 | 29349 ft | 355 kts | 239° |
| 2026-05-06 18:51 | 46.10563 | 10.29278 | 28740 ft | 352 kts | 239° |
| 2026-05-06 18:51 | 46.09439 | 10.26113 | 28123 ft | 357 kts | 239° |
| 2026-05-06 18:51 | 46.08307 | 10.22935 | 27489 ft | 355 kts | 239° |
| 2026-05-06 18:52 | 46.07183 | 10.19777 | 26877 ft | 353 kts | 239° |
| 2026-05-06 18:52 | 46.06065 | 10.16634 | 26268 ft | 352 kts | 239° |
| 2026-05-06 18:52 | 46.04786 | 10.13661 | 25676 ft | 348 kts | 231° |
| 2026-05-06 18:52 | 46.03173 | 10.11086 | 25082 ft | 347 kts | 221° |
| 2026-05-06 18:53 | 46.01270 | 10.08963 | 24502 ft | 346 kts | 213° |
| 2026-05-06 18:53 | 45.99224 | 10.07148 | 23920 ft | 345 kts | 212° |
| 2026-05-06 18:53 | 45.97179 | 10.05335 | 23301 ft | 346 kts | 212° |
| 2026-05-06 18:53 | 45.95134 | 10.03521 | 22715 ft | 345 kts | 212° |
| 2026-05-06 18:54 | 45.93098 | 10.01715 | 22165 ft | 343 kts | 212° |
| 2026-05-06 18:54 | 45.91069 | 9.99913 | 21657 ft | 343 kts | 212° |
| 2026-05-06 18:54 | 45.89045 | 9.98117 | 21140 ft | 342 kts | 213° |
| 2026-05-06 18:54 | 45.86990 | 9.96294 | 20648 ft | 348 kts | 212° |
| 2026-05-06 18:55 | 45.84956 | 9.94493 | 20168 ft | 340 kts | 212° |
| 2026-05-06 18:55 | 45.82954 | 9.92723 | 19713 ft | 337 kts | 212° |
| 2026-05-06 18:55 | 45.80960 | 9.90966 | 19248 ft | 336 kts | 212° |
| 2026-05-06 18:55 | 45.78970 | 9.89218 | 18822 ft | 335 kts | 212° |
| 2026-05-06 18:56 | 45.76991 | 9.87478 | 18388 ft | 334 kts | 212° |
| 2026-05-06 18:56 | 45.75036 | 9.85753 | 18118 ft | 323 kts | 212° |
| 2026-05-06 18:56 | 45.73786 | 9.84649 | 18015 ft | 314 kts | 212° |
| 2026-05-06 18:56 | 45.71968 | 9.83049 | 17765 ft | 303 kts | 212° |
| 2026-05-06 18:57 | 45.70185 | 9.81485 | 17445 ft | 298 kts | 212° |
| 2026-05-06 18:57 | 45.68426 | 9.79941 | 17180 ft | 296 kts | 212° |
| 2026-05-06 18:57 | 45.66675 | 9.78401 | 16917 ft | 295 kts | 212° |
| 2026-05-06 18:57 | 45.64929 | 9.76865 | 16652 ft | 294 kts | 212° |
| 2026-05-06 18:58 | 45.63222 | 9.75265 | 16389 ft | 293 kts | 214° |
| 2026-05-06 18:58 | 45.61552 | 9.73609 | 16136 ft | 292 kts | 215° |
| 2026-05-06 18:58 | 45.59895 | 9.71931 | 15880 ft | 291 kts | 216° |
| 2026-05-06 18:58 | 45.58246 | 9.70255 | 15568 ft | 290 kts | 215° |
| 2026-05-06 18:59 | 45.56602 | 9.68591 | 15134 ft | 289 kts | 215° |
| 2026-05-06 18:59 | 45.54963 | 9.66945 | 14841 ft | 288 kts | 216° |
| 2026-05-06 18:59 | 45.53328 | 9.65312 | 14388 ft | 286 kts | 216° |
| 2026-05-06 18:59 | 45.51697 | 9.63687 | 13950 ft | 286 kts | 215° |
| 2026-05-06 19:00 | 45.50076 | 9.62074 | 13581 ft | 283 kts | 215° |
| 2026-05-06 19:00 | 45.48466 | 9.60478 | 13153 ft | 281 kts | 215° |
| 2026-05-06 19:00 | 45.46802 | 9.58842 | 12732 ft | 310 kts | 215° |
| 2026-05-06 19:00 | 45.44949 | 9.57022 | 12300 ft | 332 kts | 215° |
| 2026-05-06 19:01 | 45.43035 | 9.55143 | 11882 ft | 335 kts | 215° |
| 2026-05-06 19:01 | 45.41136 | 9.53276 | 11464 ft | 327 kts | 215° |
| 2026-05-06 19:01 | 45.39291 | 9.51452 | 11062 ft | 319 kts | 215° |
| 2026-05-06 19:01 | 45.37493 | 9.49673 | 10644 ft | 311 kts | 215° |
| 2026-05-06 19:02 | 45.35738 | 9.47936 | 10244 ft | 304 kts | 215° |
| 2026-05-06 19:02 | 45.34024 | 9.46238 | 9841 ft | 296 kts | 215° |
| 2026-05-06 19:02 | 45.32365 | 9.44631 | 9404 ft | 281 kts | 210° |
| 2026-05-06 19:02 | 45.30584 | 9.43676 | 8975 ft | 270 kts | 191° |
| 2026-05-06 19:03 | 45.28743 | 9.43593 | 8546 ft | 261 kts | 177° |
| 2026-05-06 19:03 | 45.26966 | 9.43796 | 8117 ft | 252 kts | 178° |
| 2026-05-06 19:03 | 45.25250 | 9.43985 | 7713 ft | 243 kts | 178° |
| 2026-05-06 19:03 | 45.23601 | 9.44163 | 7316 ft | 232 kts | 178° |
| 2026-05-06 19:04 | 45.22022 | 9.44332 | 6910 ft | 224 kts | 178° |
| 2026-05-06 19:04 | 45.20474 | 9.44497 | 6506 ft | 222 kts | 178° |
| 2026-05-06 19:04 | 45.18937 | 9.44660 | 6109 ft | 221 kts | 178° |
| 2026-05-06 19:04 | 45.17410 | 9.44774 | 5694 ft | 218 kts | 186° |
| 2026-05-06 19:05 | 45.15983 | 9.44175 | 5287 ft | 214 kts | 212° |
| 2026-05-06 19:05 | 45.14955 | 9.42726 | 5018 ft | 206 kts | 239° |
| 2026-05-06 19:05 | 45.14530 | 9.40806 | 4951 ft | 208 kts | 264° |
| 2026-05-06 19:05 | 45.14769 | 9.38820 | 4827 ft | 211 kts | 291° |
| 2026-05-06 19:06 | 45.15668 | 9.37171 | 4700 ft | 216 kts | 319° |
| 2026-05-06 19:06 | 45.16903 | 9.35943 | 4581 ft | 217 kts | 322° |
| 2026-05-06 19:06 | 45.18143 | 9.34721 | 4450 ft | 217 kts | 322° |
| 2026-05-06 19:06 | 45.19378 | 9.33501 | 4322 ft | 216 kts | 322° |
| 2026-05-06 19:07 | 45.20607 | 9.32288 | 4213 ft | 216 kts | 323° |
| 2026-05-06 19:07 | 45.21839 | 9.31069 | 4093 ft | 216 kts | 323° |
| 2026-05-06 19:07 | 45.23165 | 9.30087 | 3957 ft | 217 kts | 343° |
| 2026-05-06 19:07 | 45.24662 | 9.29827 | 3865 ft | 217 kts | 355° |
| 2026-05-06 19:08 | 45.26166 | 9.29673 | 3698 ft | 216 kts | 355° |
| 2026-05-06 19:08 | 45.27657 | 9.29517 | 3442 ft | 212 kts | 355° |
| 2026-05-06 19:08 | 45.29104 | 9.29362 | 3171 ft | 205 kts | 354° |
| 2026-05-06 19:08 | 45.30513 | 9.29211 | 2904 ft | 201 kts | 355° |
| 2026-05-06 19:09 | 45.31881 | 9.29065 | 2656 ft | 190 kts | 354° |
| 2026-05-06 19:09 | 45.33139 | 9.28930 | 2396 ft | 173 kts | 354° |
| 2026-05-06 19:09 | 45.34289 | 9.28807 | 2172 ft | 159 kts | 355° |
| 2026-05-06 19:09 | 45.35352 | 9.28692 | 1965 ft | 149 kts | 356° |
| 2026-05-06 19:10 | 45.36363 | 9.28583 | 1766 ft | 143 kts | 356° |
| 2026-05-06 19:10 | 45.37345 | 9.28477 | 1587 ft | 140 kts | 357° |
| 2026-05-06 19:10 | 45.38309 | 9.28374 | 1394 ft | 138 kts | 356° |
| 2026-05-06 19:10 | 45.39264 | 9.28273 | 1206 ft | 137 kts | 357° |
| 2026-05-06 19:11 | 45.40207 | 9.28167 | 1025 ft | 136 kts | 357° |
| 2026-05-06 19:11 | 45.41138 | 9.28069 | 822 ft | 132 kts | 356° |
| 2026-05-06 19:11 | 45.42049 | 9.27972 | 633 ft | 130 kts | 356° |
| 2026-05-06 19:11 | 45.42954 | 9.27876 | 479 ft | 131 kts | 355° |
| 2026-05-06 19:12 | 45.43858 | 9.27776 | 371 ft | 128 kts | 356° |
| 2026-05-06 19:12 | 45.44645 | 9.27694 | 367 ft | 88 kts | 356° |
| 2026-05-06 19:12 | 45.45088 | 9.27647 | 359 ft | 48 kts | 355° |
| 2026-05-06 19:12 | 45.45318 | 9.27663 | 365 ft | 29 kts | 22° |
| 2026-05-06 19:13 | 45.45430 | 9.27756 | 361 ft | 10 kts | 34° |
| 2026-05-06 19:13 | 45.45455 | 9.27801 | 363 ft | 0 kts | 63° |
| 2026-05-06 19:13 | 45.45458 | 9.27841 | 362 ft | 10 kts | 88° |
| 2026-05-06 19:14 | 45.45459 | 9.27934 | 360 ft | 6 kts | 84° |
| 2026-05-06 19:14 | 45.45486 | 9.27975 | 363 ft | 6 kts | 24° |
| 2026-05-06 19:14 | 45.45511 | 9.28000 | 362 ft | 4 kts | 82° |
| 2026-05-06 19:14 | 45.45511 | 9.28040 | 360 ft | 4 kts | 89° |
| 2026-05-06 19:15 | 45.45511 | 9.28066 | 360 ft | 2 kts | 90° |
| 2026-05-06 19:15 | 45.45511 | 9.28067 | 360 ft | 0 kts | 90° |